Cincinnati, OH

8:33 PM EDT on May 25, 2015 (GMT -0400)
Butler County Regional | | Change Station
CLOSE
Current Station
Airport
Location: Hamilton,
Elevation: 633 ft
Nearby Weather Stations

Elev 633 ft 39.36 °N, 84.52 °W | Updated 40 minutes ago

Mostly Cloudy
Mostly Cloudy
75 °F
Feels Like 75 °F
N
7
Wind Variable Wind from SSW

Today
High -- | Low -- °F
--% Chance of Precip.
Yesterday
High -- | Low -- °F
Precip. -- in
6:17 AM 8:52 PM
First Quarter, 53% visible
Pressure 30.10 in
Visibility 10.0 miles
Clouds Few 3100 ft
Mostly Cloudy 3800 ft
Overcast 4600 ft
Dew Point 64 °F
Humidity 69%
Rainfall 0.16 in
Snow Depth Not available.
UV 0 out of 12
Pollen 9.50 out of 12
Air Quality Not available.
Flu Activity Local Activity
METAR KHAO 252353Z AUTO 20006KT 10SM FEW031 BKN038 OVC046 24/18 A3011 RMK AO2 SLP191 60000 T02390178 10261 20217 55001

More Conditions Fewer Conditions

Pressure 30.10 in
Visibility 10.0 miles
Clouds Few 3100 ft
Mostly Cloudy 3800 ft
Overcast 4600 ft
Dew Point 64 °F
Humidity 69%
Rainfall 0.16 in
Snow Depth Not available.
UV 0 out of 12
Pollen 9.50 out of 12
Air Quality Not available.
Flu Activity Local Activity
METAR KHAO 252353Z AUTO 20006KT 10SM FEW031 BKN038 OVC046 24/18 A3011 RMK AO2 SLP191 60000 T02390178 10261 20217 55001

More Conditions Fewer Conditions

10-Day Weather Forecast

Almanac

Astronomy

May. 25, 2015 Rise Set
Actual Time
Civil Twilight
Nautical Twilight
Astronomical Twilight
Moon
Length of Visible Light
Length of Day
Tomorrow will be .
, % of the Moon is Illuminated

Today's Extremes

State Highs State Lows

Community

WunderPhotos

Upload Photos

1,824,187 photos uploaded!

WunderBlogs® & News

Nearby

Air Quality

  Air Quality AQ Index Pollutant
Not available.

Snow Depth

Station Depth Elevation

Earthquake Activity

City Distance Mag. Time & Date
Minimum magnitude displayed is 2.5.

Coastal Water Temperatures

Place Temperature

Stations

Nearby Weather Stations

Station Location Temp. Windchill Dew Point Humidity Wind Precip. Elev Updated Type